TimeCST,TemperatureF,Dew PointF,Humidity,Sea Level PressureIn,VisibilityMPH,Wind Direction,Wind SpeedMPH,Gust SpeedMPH,PrecipitationIn,Events,Conditions,WindDirDegrees,DateUTC
12:15 AM,38.8,34.7,85,29.84,10.0,South,9.2,-,N/A,,Overcast,180,2012-11-06 06:15:00
12:34 AM,38.8,34.9,86,29.81,10.0,SSE,10.4,16.1,N/A,,Light Drizzle,160,2012-11-06 06:34:00
12:54 AM,39.2,35.2,86,29.79,10.0,South,4.6,9.2,N/A,,Overcast,180,2012-11-06 06:54:00
1:15 AM,39.6,35.6,86,29.81,10.0,SSW,5.8,-,N/A,,Overcast,200,2012-11-06 07:15:00
1:35 AM,39.6,35.6,86,29.81,10.0,WSW,12.7,21.9,N/A,,Overcast,250,2012-11-06 07:35:00
1:54 AM,40.1,36.1,86,29.81,10.0,WSW,17.3,26.5,N/A,,Overcast,240,2012-11-06 07:54:00
2:15 AM,40.5,36.5,86,29.80,10.0,SW,20.7,27.6,N/A,,Overcast,230,2012-11-06 08:15:00
2:35 AM,41.0,37.0,86,29.81,10.0,WSW,17.3,23.0,N/A,,Overcast,250,2012-11-06 08:35:00
2:54 AM,41.5,37.4,85,29.82,10.0,WSW,15.0,23.0,N/A,,Overcast,250,2012-11-06 08:54:00
3:15 AM,42.6,38.1,84,29.81,10.0,West,15.0,23.0,N/A,,Overcast,270,2012-11-06 09:15:00
3:35 AM,42.6,38.3,85,29.82,10.0,West,17.3,20.7,N/A,,Overcast,270,2012-11-06 09:35:00
3:54 AM,41.7,37.8,86,29.82,10.0,West,13.8,21.9,N/A,,Scattered Clouds,280,2012-11-06 09:54:00
4:15 AM,41.0,37.4,87,29.82,10.0,West,13.8,-,N/A,,Clear,280,2012-11-06 10:15:00
4:35 AM,40.3,36.5,86,29.83,10.0,WNW,12.7,-,N/A,,Clear,290,2012-11-06 10:35:00
4:54 AM,40.1,35.8,85,29.83,10.0,WNW,13.8,-,N/A,,Clear,290,2012-11-06 10:54:00
5:15 AM,39.2,35.1,85,29.84,10.0,WNW,11.5,-,N/A,,Clear,300,2012-11-06 11:15:00
5:54 AM,38.8,34.3,84,29.84,10.0,WNW,15.0,20.7,N/A,,Clear,300,2012-11-06 11:54:00
6:15 AM,38.7,33.8,83,29.85,10.0,WNW,17.3,-,N/A,,Clear,290,2012-11-06 12:15:00
6:35 AM,38.8,33.1,80,29.85,10.0,WNW,16.1,24.2,N/A,,Clear,300,2012-11-06 12:35:00
6:55 AM,38.8,33.1,80,29.86,10.0,WNW,18.4,23.0,N/A,,Clear,290,2012-11-06 12:55:00
7:14 AM,38.5,32.9,80,29.86,10.0,WNW,17.3,24.2,N/A,,Clear,290,2012-11-06 13:14:00
7:35 AM,38.7,32.9,80,29.87,10.0,WNW,20.7,24.2,N/A,,Scattered Clouds,290,2012-11-06 13:35:00
7:55 AM,39.4,32.9,78,29.88,10.0,WNW,20.7,27.6,N/A,,Mostly Cloudy,290,2012-11-06 13:55:00
8:15 AM,40.5,33.6,77,29.88,10.0,WNW,19.6,27.6,N/A,,Overcast,300,2012-11-06 14:15:00
8:34 AM,40.8,33.8,76,29.89,10.0,WNW,20.7,25.3,N/A,,Overcast,290,2012-11-06 14:34:00
8:55 AM,41.4,34.2,76,29.89,10.0,WNW,17.3,26.5,N/A,,Overcast,300,2012-11-06 14:55:00
9:15 AM,41.9,34.5,75,29.89,10.0,WNW,18.4,27.6,N/A,,Overcast,300,2012-11-06 15:15:00
9:34 AM,42.3,34.3,74,29.90,10.0,WNW,24.2,29.9,N/A,,Overcast,300,2012-11-06 15:34:00
9:55 AM,43.0,34.7,73,29.90,10.0,WNW,21.9,31.1,N/A,,Overcast,300,2012-11-06 15:55:00
10:15 AM,43.3,34.7,72,29.91,10.0,WNW,21.9,31.1,N/A,,Overcast,300,2012-11-06 16:15:00
10:35 AM,43.7,34.7,71,29.91,10.0,WNW,27.6,32.2,N/A,,Overcast,300,2012-11-06 16:35:00
10:55 AM,43.9,34.3,69,29.91,10.0,WNW,27.6,39.1,N/A,,Overcast,300,2012-11-06 16:55:00
11:15 AM,43.9,34.7,70,29.91,10.0,NW,23.0,32.2,N/A,,Overcast,310,2012-11-06 17:15:00
11:34 AM,43.7,34.2,69,29.91,10.0,NW,23.0,32.2,N/A,,Overcast,310,2012-11-06 17:34:00
11:55 AM,43.7,34.3,70,29.91,10.0,WNW,23.0,29.9,N/A,,Overcast,300,2012-11-06 17:55:00
12:14 PM,43.9,34.3,69,29.91,10.0,WNW,21.9,32.2,N/A,,Overcast,300,2012-11-06 18:14:00
12:35 PM,44.1,34.0,68,29.91,10.0,WNW,26.5,31.1,N/A,,Overcast,300,2012-11-06 18:35:00
12:55 PM,44.6,34.7,68,29.91,10.0,WNW,25.3,32.2,N/A,,Overcast,300,2012-11-06 18:55:00
1:15 PM,44.6,34.5,68,29.91,10.0,NW,21.9,32.2,N/A,,Overcast,310,2012-11-06 19:15:00
1:35 PM,45.0,33.8,65,29.92,10.0,NW,19.6,29.9,N/A,,Overcast,320,2012-11-06 19:35:00
1:54 PM,44.8,33.8,65,29.92,10.0,NW,21.9,32.2,N/A,,Overcast,310,2012-11-06 19:54:00
2:15 PM,44.6,34.2,67,29.93,10.0,NW,19.6,32.2,N/A,,Overcast,310,2012-11-06 20:15:00
2:35 PM,44.6,34.2,67,29.93,10.0,NW,20.7,24.2,N/A,,Overcast,310,2012-11-06 20:35:00
2:54 PM,44.8,34.0,66,29.93,10.0,NW,20.7,29.9,N/A,,Overcast,310,2012-11-06 20:54:00
3:15 PM,45.1,34.2,65,29.94,10.0,NW,19.6,26.5,N/A,,Overcast,310,2012-11-06 21:15:00
3:35 PM,45.5,33.6,63,29.95,10.0,NW,16.1,24.2,N/A,,Overcast,310,2012-11-06 21:35:00
4:15 PM,45.5,33.3,62,29.96,10.0,NW,16.1,-,N/A,,Overcast,320,2012-11-06 22:15:00
4:34 PM,45.5,32.5,61,29.96,10.0,NW,16.1,24.2,N/A,,Overcast,320,2012-11-06 22:34:00
4:54 PM,45.3,32.2,60,29.97,10.0,NW,17.3,28.8,N/A,,Overcast,320,2012-11-06 22:54:00
5:15 PM,44.6,32.5,63,29.98,10.0,NW,11.5,-,N/A,,Overcast,320,2012-11-06 23:15:00
5:35 PM,45.0,32.7,62,29.98,10.0,NW,17.3,25.3,N/A,,Overcast,320,2012-11-06 23:35:00
5:54 PM,45.1,32.9,62,29.98,10.0,NW,13.8,23.0,N/A,,Overcast,320,2012-11-06 23:54:00
6:15 PM,44.8,33.4,64,29.99,10.0,NW,11.5,18.4,N/A,,Overcast,320,2012-11-07 00:15:00
6:35 PM,44.6,34.0,66,30.00,10.0,NW,11.5,-,N/A,,Overcast,320,2012-11-07 00:35:00
6:54 PM,44.4,34.2,67,30.00,10.0,NW,11.5,-,N/A,,Overcast,320,2012-11-07 00:54:00
7:15 PM,44.1,34.5,69,30.00,10.0,NW,11.5,-,N/A,,Overcast,320,2012-11-07 01:15:00
7:35 PM,43.9,34.7,70,30.01,10.0,NW,9.2,-,N/A,,Overcast,320,2012-11-07 01:35:00
7:54 PM,43.7,34.7,71,30.01,10.0,NNW,12.7,17.3,N/A,,Overcast,330,2012-11-07 01:54:00
8:14 PM,43.7,34.5,70,30.01,10.0,NW,11.5,16.1,N/A,,Overcast,320,2012-11-07 02:14:00
8:35 PM,43.2,34.5,72,30.02,10.0,NNW,11.5,16.1,N/A,,Overcast,330,2012-11-07 02:35:00
8:54 PM,43.0,34.7,73,30.02,10.0,NW,11.5,-,N/A,,Overcast,320,2012-11-07 02:54:00
9:15 PM,42.3,34.5,74,30.03,10.0,NW,11.5,-,N/A,,Overcast,320,2012-11-07 03:15:00
9:34 PM,41.7,34.2,75,30.03,10.0,NW,11.5,-,N/A,,Overcast,320,2012-11-07 03:34:00
9:55 PM,41.0,34.0,76,30.04,10.0,NW,10.4,-,N/A,,Mostly Cloudy,320,2012-11-07 03:55:00
10:14 PM,39.7,33.8,79,30.04,10.0,NW,6.9,-,N/A,,Overcast,310,2012-11-07 04:14:00
10:35 PM,38.5,33.8,83,30.04,10.0,WNW,8.1,-,N/A,,Overcast,300,2012-11-07 04:35:00
10:55 PM,38.5,33.8,83,30.05,10.0,WNW,8.1,-,N/A,,Mostly Cloudy,300,2012-11-07 04:55:00
11:15 PM,39.2,33.6,80,30.05,10.0,NW,8.1,-,N/A,,Overcast,310,2012-11-07 05:15:00
11:34 PM,39.2,33.4,80,30.05,10.0,NW,8.1,-,N/A,,Overcast,310,2012-11-07 05:34:00
11:55 PM,39.2,33.4,80,30.05,10.0,NW,6.9,-,N/A,,Overcast,310,2012-11-07 05:55:00